Coastal Nomad — WDC6439 — position and weather

sailwx.info

Track history (hours):
 
Tides and Currents Weather Stations Pressure Air Temp Water Temp Dewpoint Dewpoint Depression Visibility Wind Speed Wind Dir Waves Ship Positions

Coastal Nomad

More information available from US FCC via Universal Licensing System and Coast Guard Vessel Documentation Center.

Last reported at 2014-Jul-27 03:34 UTC. Time now 2014-Jul-28 18:34 UTC.
Position N 51°01' W 127°56'.

Length 74 m; draft 4.6 m.

Type: Cargo ship. MMSI: 303683000.

Date/timePositionNaut miles runAvg speedWind from/ knotsBaromVisibWave heightAir tempDewpointWater temp
2014-Jul-27 03:34N 51°01' W 127°56'1312.7
2014-Jul-27 02:33N 50°54' W 127°39'1313.0
2014-Jul-27 01:33N 50°48' W 127°21'1312.7
2014-Jul-27 00:32N 50°43' W 127°02'1111.3
2014-Jul-26 23:32N 50°37' W 126°46'1110.9
2014-Jul-26 22:33N 50°30' W 126°34'1311.9
2014-Jul-26 21:26N 50°29' W 126°13'21 9.0
2014-Jul-26 19:09N 50°22' W 125°42'1012.3
2014-Jul-26 18:21N 50°20' W 125°27'1012.3
2014-Jul-26 17:33N 50°11' W 125°22'1413.6
2014-Jul-26 16:31N 49°59' W 125°12'1010.5
2014-Jul-26 15:33N 49°52' W 124°59'1110.7
2014-Jul-26 14:33N 49°45' W 124°47'1111.0
2014-Jul-26 13:33N 49°39' W 124°33'1111.5
2014-Jul-26 12:33N 49°33' W 124°18'1212.1
2014-Jul-26 11:33N 49°26' W 124°03'1312.2
2014-Jul-26 10:31N 49°18' W 123°47'1212.1
2014-Jul-26 09:33N 49°11' W 123°34'1212.3
2014-Jul-26 08:33N 49°03' W 123°19'1211.8
2014-Jul-26 07:33N 48°55' W 123°06'1212.1
2014-Jul-26 06:33N 48°48' W 122°51'1010.4
2014-Jul-26 05:34N 48°39' W 122°43'1010.4
2014-Jul-26 04:33N 48°28' W 122°44'1111.2
2014-Jul-26 03:34N 48°17' W 122°47'1111.3
2014-Jul-26 02:33N 48°07' W 122°39'1112.1
2014-Jul-26 01:38N 47°57' W 122°31'113.4
2014-Jul-26 01:33N 47°57' W 122°30'010.2
2014-Jul-26 01:33N 47°57' W 122°30'1211.7
2014-Jul-26 00:33N 47°46' W 122°26'010.4
2014-Jul-26 00:33N 47°45' W 122°26'1 1.4
2014-Jul-25 23:33N 47°44' W 122°25'010.9
2014-Jul-25 23:32N 47°44' W 122°25'4 4.4
2014-Jul-25 22:33N 47°40' W 122°24'0 0.0
2014-Jul-25 22:27N 47°40' W 122°24'1 0.7
2014-Jul-25 21:33N 47°40' W 122°23'0 3.6
2014-Jul-25 21:32N 47°40' W 122°23'0 0.3
2014-Jul-25 20:33N 47°39' W 122°23'0 0.0
2014-Jul-25 20:31N 47°39' W 122°23'0 0.0
2014-Jul-25 19:33N 47°39' W 122°23'0 0.0
2014-Jul-25 19:31N 47°39' W 122°23'0 0.0
2014-Jul-25 18:33N 47°39' W 122°23'0 0.0
2014-Jul-25 18:31N 47°39' W 122°23'0 0.0
2014-Jul-25 17:33N 47°39' W 122°23'0 0.0
2014-Jul-25 16:33N 47°39' W 122°23'0 0.0
2014-Jul-25 15:37N 47°39' W 122°23'0 0.0
2014-Jul-25 15:33N 47°39' W 122°23'0 0.0
2014-Jul-25 15:32N 47°39' W 122°23'0 0.0
2014-Jul-25 14:33N 47°39' W 122°23'0 0.0
2014-Jul-25 14:32N 47°39' W 122°23'0 0.0
2014-Jul-25 13:33N 47°39' W 122°23'0 0.0
2014-Jul-25 13:11N 47°39' W 122°23'0 0.0
2014-Jul-25 12:33N 47°39' W 122°23'0 0.0
2014-Jul-25 12:31N 47°39' W 122°23'0 0.0
2014-Jul-25 11:33N 47°39' W 122°23'0 0.0
2014-Jul-25 11:20N 47°39' W 122°23'0 0.0
2014-Jul-25 10:33N 47°39' W 122°23'0 0.0
2014-Jul-25 09:39N 47°39' W 122°23'0 0.0
2014-Jul-25 09:33N 47°39' W 122°23'0 0.0
2014-Jul-25 09:33N 47°39' W 122°23'0 0.0
2014-Jul-25 08:33N 47°39' W 122°23'0 0.0
2014-Jul-25 08:33N 47°39' W 122°23'0 0.0
2014-Jul-25 07:33N 47°39' W 122°23'0 0.0
2014-Jul-25 07:33N 47°39' W 122°23'0 0.0
2014-Jul-25 06:43N 47°39' W 122°23'0 0.0
2014-Jul-25 06:33N 47°39' W 122°23'0 0.0
2014-Jul-25 05:33N 47°39' W 122°23'0 0.0
2014-Jul-25 05:33N 47°39' W 122°23'0 0.0
2014-Jul-25 04:33N 47°39' W 122°23'0 0.0
2014-Jul-25 04:32N 47°39' W 122°23'0 0.0
2014-Jul-25 03:33N 47°39' W 122°23'0 0.0
2014-Jul-25 03:32N 47°39' W 122°23'0 0.0
2014-Jul-25 02:33N 47°39' W 122°23'0 0.0
2014-Jul-25 02:32N 47°39' W 122°23'0 0.0
2014-Jul-25 01:33N 47°39' W 122°23'0 0.0
2014-Jul-25 01:31N 47°39' W 122°23'0 0.0
2014-Jul-25 00:33N 47°39' W 122°23'0 0.0
2014-Jul-25 00:31N 47°39' W 122°23'0 0.0
2014-Jul-24 23:33N 47°39' W 122°23'0 0.0
2014-Jul-24 23:31N 47°39' W 122°23'0 0.0
2014-Jul-24 22:33N 47°39' W 122°23'0 0.0
2014-Jul-24 22:31N 47°39' W 122°23'0 0.0
2014-Jul-24 21:33N 47°39' W 122°23'0 0.0
2014-Jul-24 21:31N 47°39' W 122°23'0 0.0
2014-Jul-24 20:33N 47°39' W 122°23'0 0.0
2014-Jul-24 20:31N 47°39' W 122°23'0 0.0
2014-Jul-24 19:33N 47°39' W 122°23'0 0.0
2014-Jul-24 19:30N 47°39' W 122°23'0 0.0
2014-Jul-24 18:33N 47°39' W 122°23'0 0.0
2014-Jul-24 18:30N 47°39' W 122°23'0 0.0
2014-Jul-24 17:33N 47°39' W 122°23'0 0.0
2014-Jul-24 17:30N 47°39' W 122°23'0 0.0
2014-Jul-24 16:33N 47°39' W 122°23'0 0.0
2014-Jul-24 16:30N 47°39' W 122°23'0 0.0
2014-Jul-24 15:33N 47°39' W 122°23'0 0.0
2014-Jul-24 15:08N 47°39' W 122°23'0 0.0
2014-Jul-24 14:33N 47°39' W 122°23'0 0.0
2014-Jul-24 14:33N 47°39' W 122°23'0 0.0
2014-Jul-24 13:33N 47°39' W 122°23'0 0.0
2014-Jul-24 13:33N 47°39' W 122°23'0 0.0
2014-Jul-24 12:33N 47°39' W 122°23'0 0.0
2014-Jul-24 12:32N 47°39' W 122°23'0 0.0
2014-Jul-24 11:33N 47°39' W 122°23'0 0.0
2014-Jul-24 11:32N 47°39' W 122°23'0 0.0
2014-Jul-24 10:33N 47°39' W 122°23'0 0.0
2014-Jul-24 10:32N 47°39' W 122°23'0 0.0
2014-Jul-24 09:33N 47°39' W 122°23'0 0.0
2014-Jul-24 09:32N 47°39' W 122°23'0 0.0
2014-Jul-24 08:33N 47°39' W 122°23'0 0.0
2014-Jul-24 08:32N 47°39' W 122°23'0 0.0
2014-Jul-24 07:33N 47°39' W 122°23'0 0.0
2014-Jul-24 07:31N 47°39' W 122°23'0 0.0
2014-Jul-24 06:33N 47°39' W 122°23'0 0.0
2014-Jul-24 06:31N 47°39' W 122°23'0 0.0
2014-Jul-24 05:32N 47°39' W 122°23'0 0.0
2014-Jul-24 05:09N 47°39' W 122°23'0 0.0
2014-Jul-24 04:34N 47°39' W 122°23'0 0.0
2014-Jul-24 04:33N 47°39' W 122°23'0 0.0
2014-Jul-24 03:33N 47°39' W 122°23'0 0.0
2014-Jul-24 03:33N 47°39' W 122°23'0 0.0
2014-Jul-24 02:33N 47°39' W 122°23'0 0.0
2014-Jul-24 02:33N 47°39' W 122°23'0 0.0
2014-Jul-24 01:33N 47°39' W 122°23'0 0.0
2014-Jul-24 01:11N 47°39' W 122°23'0 0.0
2014-Jul-24 00:33N 47°39' W 122°23'0 0.0
2014-Jul-24 00:30N 47°39' W 122°23'0 0.0
2014-Jul-23 23:33N 47°39' W 122°23'0 0.0
2014-Jul-23 23:30N 47°39' W 122°23'0 0.0
2014-Jul-23 22:29N 47°39' W 122°23'0 0.0
2014-Jul-23 22:02N 47°39' W 122°23'0 0.0
2014-Jul-23 21:33N 47°39' W 122°23'0 0.0
2014-Jul-23 21:33N 47°39' W 122°23'0 0.0
2014-Jul-23 20:33N 47°39' W 122°23'0 0.0
2014-Jul-23 20:33N 47°39' W 122°23'0 0.0
2014-Jul-23 19:33N 47°39' W 122°23'0 0.0
2014-Jul-23 19:32N 47°39' W 122°23'0 0.0
2014-Jul-23 18:33N 47°39' W 122°23'0 0.0
2014-Jul-23 18:32N 47°39' W 122°23'0 0.0
2014-Jul-23 17:33N 47°39' W 122°23'0 0.0
2014-Jul-23 17:32N 47°39' W 122°23'0 0.0
2014-Jul-23 16:33N 47°39' W 122°23'0 0.0
2014-Jul-23 16:32N 47°39' W 122°23'0 0.0
2014-Jul-23 15:33N 47°39' W 122°23'0 0.0
2014-Jul-23 15:31N 47°39' W 122°23'0 0.0
2014-Jul-23 14:33N 47°39' W 122°23'0 0.0
2014-Jul-23 14:31N 47°39' W 122°23'0 0.0
2014-Jul-23 13:33N 47°39' W 122°23'0 0.0
2014-Jul-23 13:31N 47°39' W 122°23'0 0.0
2014-Jul-23 12:33N 47°39' W 122°23'0 0.0
2014-Jul-23 12:31N 47°39' W 122°23'0 0.0
2014-Jul-23 11:33N 47°39' W 122°23'0 0.0
2014-Jul-23 11:31N 47°39' W 122°23'0 0.0
2014-Jul-23 10:33N 47°39' W 122°23'0 0.0
2014-Jul-23 10:30N 47°39' W 122°23'0 0.0
2014-Jul-23 09:33N 47°39' W 122°23'0 0.0
2014-Jul-23 09:30N 47°39' W 122°23'0 0.0
2014-Jul-23 08:33N 47°39' W 122°23'0 0.0
2014-Jul-23 08:30N 47°39' W 122°23'0 0.0
2014-Jul-23 07:33N 47°39' W 122°23'0 0.0
2014-Jul-23 07:30N 47°39' W 122°23'0 0.0
2014-Jul-23 06:33N 47°39' W 122°23'0 0.0
2014-Jul-23 06:29N 47°39' W 122°23'0 0.0
2014-Jul-23 05:34N 47°39' W 122°23'0 0.0
2014-Jul-23 05:33N 47°39' W 122°23'0 0.0
2014-Jul-23 04:34N 47°39' W 122°23'0 0.0
2014-Jul-23 04:33N 47°39' W 122°23'0 0.0
2014-Jul-23 03:34N 47°39' W 122°23'0 0.0
2014-Jul-23 03:33N 47°39' W 122°23'0 0.0
2014-Jul-23 02:34N 47°39' W 122°23'0 0.0
2014-Jul-23 02:33N 47°39' W 122°23'0 0.0
2014-Jul-23 01:33N 47°39' W 122°23'0 0.0
2014-Jul-23 01:33N 47°39' W 122°23'0 0.0
2014-Jul-23 00:33N 47°39' W 122°23'0 0.0
2014-Jul-23 00:33N 47°39' W 122°23'0 0.0
2014-Jul-22 23:33N 47°39' W 122°23'0 0.0
2014-Jul-22 23:15N 47°39' W 122°23'0 0.0
2014-Jul-22 22:33N 47°39' W 122°23'0 0.0
2014-Jul-22 22:31N 47°39' W 122°23'0 0.0
2014-Jul-22 21:33N 47°39' W 122°23'0 0.0
2014-Jul-22 21:30N 47°39' W 122°23'0 0.0
2014-Jul-22 20:33N 47°39' W 122°23'0 0.0
2014-Jul-22 20:30N 47°39' W 122°23'0 0.0
2014-Jul-22 19:33N 47°39' W 122°23'0 0.0
2014-Jul-22 19:30N 47°39' W 122°23'0 0.0
2014-Jul-22 18:33N 47°39' W 122°23'0 0.0
2014-Jul-22 18:30N 47°39' W 122°23'0 0.0
2014-Jul-22 17:33N 47°39' W 122°23'0 0.0
2014-Jul-22 17:29N 47°39' W 122°23'0 0.0
2014-Jul-22 16:33N 47°39' W 122°23'0 0.0
2014-Jul-22 16:29N 47°39' W 122°23'0 0.0
2014-Jul-22 15:33N 47°39' W 122°23'0 0.0
2014-Jul-22 15:28N 47°39' W 122°23'0 0.0
2014-Jul-22 14:34N 47°39' W 122°23'0 0.0
2014-Jul-22 14:33N 47°39' W 122°23'0 0.0
2014-Jul-22 13:33N 47°39' W 122°23'0 0.0
2014-Jul-22 13:33N 47°39' W 122°23'0 0.0
2014-Jul-22 12:33N 47°39' W 122°23'0 0.0
2014-Jul-22 12:33N 47°39' W 122°23'0 0.0
2014-Jul-22 11:33N 47°39' W 122°23'0 0.0
2014-Jul-22 11:32N 47°39' W 122°23'0 0.0
2014-Jul-22 10:33N 47°39' W 122°23'0 0.0
2014-Jul-22 10:32N 47°39' W 122°23'0 0.0
2014-Jul-22 09:33N 47°39' W 122°23'0 0.0
2014-Jul-22 09:32N 47°39' W 122°23'0 0.0
2014-Jul-22 08:33N 47°39' W 122°23'0 0.0
2014-Jul-22 08:32N 47°39' W 122°23'0 0.0
2014-Jul-22 07:33N 47°39' W 122°23'0 0.0
2014-Jul-22 07:31N 47°39' W 122°23'0 0.0
2014-Jul-22 06:33N 47°39' W 122°23'0 0.0
2014-Jul-22 05:32N 47°39' W 122°23'0 0.0
2014-Jul-22 05:29N 47°39' W 122°23'0 0.0
2014-Jul-22 04:34N 47°39' W 122°23'0 0.0
2014-Jul-22 04:33N 47°39' W 122°23'0 0.0
2014-Jul-22 03:34N 47°39' W 122°23'0 0.0
2014-Jul-22 03:33N 47°39' W 122°23'0 0.0
2014-Jul-22 02:27N 47°39' W 122°23'0 0.0
2014-Jul-22 02:18N 47°39' W 122°23'0 0.0
2014-Jul-22 01:33N 47°39' W 122°23'0 0.0
2014-Jul-22 01:27N 47°39' W 122°23'0 0.0
2014-Jul-22 00:33N 47°39' W 122°23'0 0.0
2014-Jul-22 00:32N 47°39' W 122°23'0 0.0
2014-Jul-21 23:33N 47°39' W 122°23'0 0.0
2014-Jul-21 23:31N 47°39' W 122°23'0 0.0
2014-Jul-21 22:30N 47°39' W 122°23'0 0.0
2014-Jul-21 21:43N 47°39' W 122°23'0 0.0
2014-Jul-21 21:33N 47°39' W 122°23'0 0.0
2014-Jul-21 21:33N 47°39' W 122°23'0 0.0
2014-Jul-21 20:33N 47°39' W 122°23'0 0.0
2014-Jul-21 20:33N 47°39' W 122°23'0 0.0
2014-Jul-21 20:18N 47°39' W 122°23'0 0.0
2014-Jul-21 19:57N 47°39' W 122°23'0 0.0
2014-Jul-21 19:33N 47°39' W 122°23'0 0.0
2014-Jul-21 19:06N 47°39' W 122°23'0 0.0
2014-Jul-21 18:33N 47°39' W 122°23'0 0.0
2014-Jul-21 18:31N 47°39' W 122°23'0 0.0
2014-Jul-21 17:33N 47°39' W 122°23'0 0.0
2014-Jul-21 17:31N 47°39' W 122°23'0 0.0
2014-Jul-21 16:33N 47°39' W 122°23'0 0.0
2014-Jul-21 16:31N 47°39' W 122°23'0 0.0
2014-Jul-21 15:33N 47°39' W 122°23'0 0.0
2014-Jul-21 15:30N 47°39' W 122°23'0 0.0
2014-Jul-21 14:33N 47°39' W 122°23'0 0.0
2014-Jul-21 14:30N 47°39' W 122°23'0 0.0
2014-Jul-21 13:33N 47°39' W 122°23'0 0.0
2014-Jul-21 13:30N 47°39' W 122°23'0 0.0
2014-Jul-21 12:33N 47°39' W 122°23'0 0.0
2014-Jul-21 12:30N 47°39' W 122°23'0 0.0
2014-Jul-21 11:33N 47°39' W 122°23'0 0.0
2014-Jul-21 11:28N 47°39' W 122°23'0 0.0
2014-Jul-21 10:33N 47°39' W 122°23'0 0.0
2014-Jul-21 10:33N 47°39' W 122°23'0 0.0
2014-Jul-21 09:33N 47°39' W 122°23'0 0.0
2014-Jul-21 09:33N 47°39' W 122°23'0 0.0
2014-Jul-21 08:33N 47°39' W 122°23'0 0.0
2014-Jul-21 08:33N 47°39' W 122°23'0 0.0
2014-Jul-21 07:33N 47°39' W 122°23'0 0.0
2014-Jul-21 07:31N 47°39' W 122°23'0 0.0
2014-Jul-21 06:33N 47°39' W 122°23'0 0.0
2014-Jul-21 06:33N 47°39' W 122°23'0 0.0
2014-Jul-21 05:43N 47°39' W 122°23'0 0.0
2014-Jul-21 05:33N 47°39' W 122°23'0 0.0
2014-Jul-21 04:33N 47°39' W 122°23'0 0.0
2014-Jul-21 04:32N 47°39' W 122°23'0 0.0
2014-Jul-21 03:33N 47°39' W 122°23'0 0.0
2014-Jul-21 03:32N 47°39' W 122°23'0 0.0
2014-Jul-21 02:33N 47°39' W 122°23'0 0.0
2014-Jul-21 02:32N 47°39' W 122°23'0 0.0
2014-Jul-21 01:33N 47°39' W 122°23'0 0.0
2014-Jul-21 01:31N 47°39' W 122°23'0 0.0
2014-Jul-21 00:33N 47°39' W 122°23'0 0.0
2014-Jul-21 00:31N 47°39' W 122°23'0 0.0
2014-Jul-20 23:33N 47°39' W 122°23'0 0.0
2014-Jul-20 23:31N 47°39' W 122°23'0 0.0
2014-Jul-20 22:33N 47°39' W 122°23'0 0.0
2014-Jul-20 22:31N 47°39' W 122°23'0 0.0
2014-Jul-20 21:33N 47°39' W 122°23'0 0.0
2014-Jul-20 21:31N 47°39' W 122°23'0 0.0
2014-Jul-20 20:33N 47°39' W 122°23'0 0.0
2014-Jul-20 20:19N 47°39' W 122°23'0 0.0
2014-Jul-20 19:33N 47°39' W 122°23'0 0.0
2014-Jul-20 19:29N 47°39' W 122°23'1 1.1
2014-Jul-20 18:33N 47°40' W 122°24'0 0.1
2014-Jul-20 18:29N 47°40' W 122°24'1 0.9
2014-Jul-20 17:33N 47°41' W 122°25'0 4.2
2014-Jul-20 17:29N 47°41' W 122°25'3 3.7
2014-Jul-20 16:33N 47°38' W 122°23'0 0.0
2014-Jul-20 16:13N 47°38' W 122°23'0 0.0
2014-Jul-20 15:28N 47°38' W 122°23'0 0.0
2014-Jul-20 15:22N 47°38' W 122°23'0 0.0
2014-Jul-20 14:31N 47°38' W 122°23'0 0.0
2014-Jul-20 14:22N 47°38' W 122°23'0 0.0
2014-Jul-20 13:31N 47°38' W 122°23'0 0.0
2014-Jul-20 12:55N 47°38' W 122°23'0 0.0
2014-Jul-20 12:31N 47°38' W 122°23'0 0.0
2014-Jul-20 11:55N 47°38' W 122°23'0 0.0
2014-Jul-20 11:28N 47°38' W 122°23'0 0.0
2014-Jul-20 10:34N 47°38' W 122°23'0 0.0
2014-Jul-20 10:31N 47°38' W 122°23'0 0.0
2014-Jul-20 10:25N 47°38' W 122°23'0 0.0
2014-Jul-20 09:22N 47°38' W 122°23'0 0.0
2014-Jul-20 08:58N 47°38' W 122°23'0 0.0
2014-Jul-20 08:31N 47°38' W 122°23'0 0.0
2014-Jul-20 08:28N 47°38' W 122°23'1 0.9
2014-Jul-20 07:34N 47°37' W 122°24'0 4.3
2014-Jul-20 07:33N 47°37' W 122°24'10 9.9
2014-Jul-20 06:33N 47°47' W 122°28'0 7.6
2014-Jul-20 06:33N 47°47' W 122°28'1111.2
2014-Jul-20 05:33N 47°57' W 122°35'1312.7
2014-Jul-20 04:33N 48°08' W 122°43'1312.8
2014-Jul-20 03:33N 48°11' W 123°02'1212.1
2014-Jul-20 02:33N 48°13' W 123°20'1211.9
2014-Jul-20 01:33N 48°13' W 123°38'1111.5
2014-Jul-20 00:33N 48°14' W 123°55'3311.0
2014-Jul-19 21:34N 48°27' W 124°40'1110.7
2014-Jul-19 20:33N 48°28' W 124°57'1212.0
2014-Jul-19 19:33N 48°30' W 125°15'1212.0
2014-Jul-19 18:33N 48°34' W 125°31'1212.0
2014-Jul-19 17:33N 48°39' W 125°48'1212.1
2014-Jul-19 16:33N 48°43' W 126°05'1212.2
2014-Jul-19 15:33N 48°46' W 126°23'  
Track history (hours):
 
Tides and Currents Weather Stations Pressure Air Temp Water Temp Dewpoint Dewpoint Depression Visibility Wind Speed Wind Dir Waves Ship Positions

Coastal Nomad

More information available from US FCC via Universal Licensing System and Coast Guard Vessel Documentation Center.

Last reported at 2014-Jul-27 03:34 UTC. Time now 2014-Jul-28 18:34 UTC.
Position N 51°01' W 127°56'.

Length 74 m; draft 4.6 m.

Type: Cargo ship. MMSI: 303683000.

Date/timePositionNaut miles runAvg speedWind from/ knotsBaromVisibWave heightAir tempDewpointWater temp
2014-Jul-27 03:34N 51°01' W 127°56'1312.7
2014-Jul-27 02:33N 50°54' W 127°39'1313.0
2014-Jul-27 01:33N 50°48' W 127°21'1312.7
2014-Jul-27 00:32N 50°43' W 127°02'1111.3
2014-Jul-26 23:32N 50°37' W 126°46'1110.9
2014-Jul-26 22:33N 50°30' W 126°34'1311.9
2014-Jul-26 21:26N 50°29' W 126°13'21 9.0
2014-Jul-26 19:09N 50°22' W 125°42'1012.3
2014-Jul-26 18:21N 50°20' W 125°27'1012.3
2014-Jul-26 17:33N 50°11' W 125°22'1413.6
2014-Jul-26 16:31N 49°59' W 125°12'1010.5
2014-Jul-26 15:33N 49°52' W 124°59'1110.7
2014-Jul-26 14:33N 49°45' W 124°47'1111.0
2014-Jul-26 13:33N 49°39' W 124°33'1111.5
2014-Jul-26 12:33N 49°33' W 124°18'1212.1
2014-Jul-26 11:33N 49°26' W 124°03'1312.2
2014-Jul-26 10:31N 49°18' W 123°47'1212.1
2014-Jul-26 09:33N 49°11' W 123°34'1212.3
2014-Jul-26 08:33N 49°03' W 123°19'1211.8
2014-Jul-26 07:33N 48°55' W 123°06'1212.1
2014-Jul-26 06:33N 48°48' W 122°51'1010.4
2014-Jul-26 05:34N 48°39' W 122°43'1010.4
2014-Jul-26 04:33N 48°28' W 122°44'1111.2
2014-Jul-26 03:34N 48°17' W 122°47'1111.3
2014-Jul-26 02:33N 48°07' W 122°39'1112.1
2014-Jul-26 01:38N 47°57' W 122°31'113.4
2014-Jul-26 01:33N 47°57' W 122°30'010.2
2014-Jul-26 01:33N 47°57' W 122°30'1211.7
2014-Jul-26 00:33N 47°46' W 122°26'010.4
2014-Jul-26 00:33N 47°45' W 122°26'1 1.4
2014-Jul-25 23:33N 47°44' W 122°25'010.9
2014-Jul-25 23:32N 47°44' W 122°25'4 4.4
2014-Jul-25 22:33N 47°40' W 122°24'0 0.0
2014-Jul-25 22:27N 47°40' W 122°24'1 0.7
2014-Jul-25 21:33N 47°40' W 122°23'0 3.6
2014-Jul-25 21:32N 47°40' W 122°23'0 0.3
2014-Jul-25 20:33N 47°39' W 122°23'0 0.0
2014-Jul-25 20:31N 47°39' W 122°23'0 0.0
2014-Jul-25 19:33N 47°39' W 122°23'0 0.0
2014-Jul-25 19:31N 47°39' W 122°23'0 0.0
2014-Jul-25 18:33N 47°39' W 122°23'0 0.0
2014-Jul-25 18:31N 47°39' W 122°23'0 0.0
2014-Jul-25 17:33N 47°39' W 122°23'0 0.0
2014-Jul-25 16:33N 47°39' W 122°23'0 0.0
2014-Jul-25 15:37N 47°39' W 122°23'0 0.0
2014-Jul-25 15:33N 47°39' W 122°23'0 0.0
2014-Jul-25 15:32N 47°39' W 122°23'0 0.0
2014-Jul-25 14:33N 47°39' W 122°23'0 0.0
2014-Jul-25 14:32N 47°39' W 122°23'0 0.0
2014-Jul-25 13:33N 47°39' W 122°23'0 0.0
2014-Jul-25 13:11N 47°39' W 122°23'0 0.0
2014-Jul-25 12:33N 47°39' W 122°23'0 0.0
2014-Jul-25 12:31N 47°39' W 122°23'0 0.0
2014-Jul-25 11:33N 47°39' W 122°23'0 0.0
2014-Jul-25 11:20N 47°39' W 122°23'0 0.0
2014-Jul-25 10:33N 47°39' W 122°23'0 0.0
2014-Jul-25 09:39N 47°39' W 122°23'0 0.0
2014-Jul-25 09:33N 47°39' W 122°23'0 0.0
2014-Jul-25 09:33N 47°39' W 122°23'0 0.0
2014-Jul-25 08:33N 47°39' W 122°23'0 0.0
2014-Jul-25 08:33N 47°39' W 122°23'0 0.0
2014-Jul-25 07:33N 47°39' W 122°23'0 0.0
2014-Jul-25 07:33N 47°39' W 122°23'0 0.0
2014-Jul-25 06:43N 47°39' W 122°23'0 0.0
2014-Jul-25 06:33N 47°39' W 122°23'0 0.0
2014-Jul-25 05:33N 47°39' W 122°23'0 0.0
2014-Jul-25 05:33N 47°39' W 122°23'0 0.0
2014-Jul-25 04:33N 47°39' W 122°23'0 0.0
2014-Jul-25 04:32N 47°39' W 122°23'0 0.0
2014-Jul-25 03:33N 47°39' W 122°23'0 0.0
2014-Jul-25 03:32N 47°39' W 122°23'0 0.0
2014-Jul-25 02:33N 47°39' W 122°23'0 0.0
2014-Jul-25 02:32N 47°39' W 122°23'0 0.0
2014-Jul-25 01:33N 47°39' W 122°23'0 0.0
2014-Jul-25 01:31N 47°39' W 122°23'0 0.0
2014-Jul-25 00:33N 47°39' W 122°23'0 0.0
2014-Jul-25 00:31N 47°39' W 122°23'0 0.0
2014-Jul-24 23:33N 47°39' W 122°23'0 0.0
2014-Jul-24 23:31N 47°39' W 122°23'0 0.0
2014-Jul-24 22:33N 47°39' W 122°23'0 0.0
2014-Jul-24 22:31N 47°39' W 122°23'0 0.0
2014-Jul-24 21:33N 47°39' W 122°23'0 0.0
2014-Jul-24 21:31N 47°39' W 122°23'0 0.0
2014-Jul-24 20:33N 47°39' W 122°23'0 0.0
2014-Jul-24 20:31N 47°39' W 122°23'0 0.0
2014-Jul-24 19:33N 47°39' W 122°23'0 0.0
2014-Jul-24 19:30N 47°39' W 122°23'0 0.0
2014-Jul-24 18:33N 47°39' W 122°23'0 0.0
2014-Jul-24 18:30N 47°39' W 122°23'0 0.0
2014-Jul-24 17:33N 47°39' W 122°23'0 0.0
2014-Jul-24 17:30N 47°39' W 122°23'0 0.0
2014-Jul-24 16:33N 47°39' W 122°23'0 0.0
2014-Jul-24 16:30N 47°39' W 122°23'0 0.0
2014-Jul-24 15:33N 47°39' W 122°23'0 0.0
2014-Jul-24 15:08N 47°39' W 122°23'0 0.0
2014-Jul-24 14:33N 47°39' W 122°23'0 0.0
2014-Jul-24 14:33N 47°39' W 122°23'0 0.0
2014-Jul-24 13:33N 47°39' W 122°23'0 0.0
2014-Jul-24 13:33N 47°39' W 122°23'0 0.0
2014-Jul-24 12:33N 47°39' W 122°23'0 0.0
2014-Jul-24 12:32N 47°39' W 122°23'0 0.0
2014-Jul-24 11:33N 47°39' W 122°23'0 0.0
2014-Jul-24 11:32N 47°39' W 122°23'0 0.0
2014-Jul-24 10:33N 47°39' W 122°23'0 0.0
2014-Jul-24 10:32N 47°39' W 122°23'0 0.0
2014-Jul-24 09:33N 47°39' W 122°23'0 0.0
2014-Jul-24 09:32N 47°39' W 122°23'0 0.0
2014-Jul-24 08:33N 47°39' W 122°23'0 0.0
2014-Jul-24 08:32N 47°39' W 122°23'0 0.0
2014-Jul-24 07:33N 47°39' W 122°23'0 0.0
2014-Jul-24 07:31N 47°39' W 122°23'0 0.0
2014-Jul-24 06:33N 47°39' W 122°23'0 0.0
2014-Jul-24 06:31N 47°39' W 122°23'0 0.0
2014-Jul-24 05:32N 47°39' W 122°23'0 0.0
2014-Jul-24 05:09N 47°39' W 122°23'0 0.0
2014-Jul-24 04:34N 47°39' W 122°23'0 0.0
2014-Jul-24 04:33N 47°39' W 122°23'0 0.0
2014-Jul-24 03:33N 47°39' W 122°23'0 0.0
2014-Jul-24 03:33N 47°39' W 122°23'0 0.0
2014-Jul-24 02:33N 47°39' W 122°23'0 0.0
2014-Jul-24 02:33N 47°39' W 122°23'0 0.0
2014-Jul-24 01:33N 47°39' W 122°23'0 0.0
2014-Jul-24 01:11N 47°39' W 122°23'0 0.0
2014-Jul-24 00:33N 47°39' W 122°23'0 0.0
2014-Jul-24 00:30N 47°39' W 122°23'0 0.0
2014-Jul-23 23:33N 47°39' W 122°23'0 0.0
2014-Jul-23 23:30N 47°39' W 122°23'0 0.0
2014-Jul-23 22:29N 47°39' W 122°23'0 0.0
2014-Jul-23 22:02N 47°39' W 122°23'0 0.0
2014-Jul-23 21:33N 47°39' W 122°23'0 0.0
2014-Jul-23 21:33N 47°39' W 122°23'0 0.0
2014-Jul-23 20:33N 47°39' W 122°23'0 0.0
2014-Jul-23 20:33N 47°39' W 122°23'0 0.0
2014-Jul-23 19:33N 47°39' W 122°23'0 0.0
2014-Jul-23 19:32N 47°39' W 122°23'0 0.0
2014-Jul-23 18:33N 47°39' W 122°23'0 0.0
2014-Jul-23 18:32N 47°39' W 122°23'0 0.0
2014-Jul-23 17:33N 47°39' W 122°23'0 0.0
2014-Jul-23 17:32N 47°39' W 122°23'0 0.0
2014-Jul-23 16:33N 47°39' W 122°23'0 0.0
2014-Jul-23 16:32N 47°39' W 122°23'0 0.0
2014-Jul-23 15:33N 47°39' W 122°23'0 0.0
2014-Jul-23 15:31N 47°39' W 122°23'0 0.0
2014-Jul-23 14:33N 47°39' W 122°23'0 0.0
2014-Jul-23 14:31N 47°39' W 122°23'0 0.0
2014-Jul-23 13:33N 47°39' W 122°23'0 0.0
2014-Jul-23 13:31N 47°39' W 122°23'0 0.0
2014-Jul-23 12:33N 47°39' W 122°23'0 0.0
2014-Jul-23 12:31N 47°39' W 122°23'0 0.0
2014-Jul-23 11:33N 47°39' W 122°23'0 0.0
2014-Jul-23 11:31N 47°39' W 122°23'0 0.0
2014-Jul-23 10:33N 47°39' W 122°23'0 0.0
2014-Jul-23 10:30N 47°39' W 122°23'0 0.0
2014-Jul-23 09:33N 47°39' W 122°23'0 0.0
2014-Jul-23 09:30N 47°39' W 122°23'0 0.0
2014-Jul-23 08:33N 47°39' W 122°23'0 0.0
2014-Jul-23 08:30N 47°39' W 122°23'0 0.0
2014-Jul-23 07:33N 47°39' W 122°23'0 0.0
2014-Jul-23 07:30N 47°39' W 122°23'0 0.0
2014-Jul-23 06:33N 47°39' W 122°23'0 0.0
2014-Jul-23 06:29N 47°39' W 122°23'0 0.0
2014-Jul-23 05:34N 47°39' W 122°23'0 0.0
2014-Jul-23 05:33N 47°39' W 122°23'0 0.0
2014-Jul-23 04:34N 47°39' W 122°23'0 0.0
2014-Jul-23 04:33N 47°39' W 122°23'0 0.0
2014-Jul-23 03:34N 47°39' W 122°23'0 0.0
2014-Jul-23 03:33N 47°39' W 122°23'0 0.0
2014-Jul-23 02:34N 47°39' W 122°23'0 0.0
2014-Jul-23 02:33N 47°39' W 122°23'0 0.0
2014-Jul-23 01:33N 47°39' W 122°23'0 0.0
2014-Jul-23 01:33N 47°39' W 122°23'0 0.0
2014-Jul-23 00:33N 47°39' W 122°23'0 0.0
2014-Jul-23 00:33N 47°39' W 122°23'0 0.0
2014-Jul-22 23:33N 47°39' W 122°23'0 0.0
2014-Jul-22 23:15N 47°39' W 122°23'0 0.0
2014-Jul-22 22:33N 47°39' W 122°23'0 0.0
2014-Jul-22 22:31N 47°39' W 122°23'0 0.0
2014-Jul-22 21:33N 47°39' W 122°23'0 0.0
2014-Jul-22 21:30N 47°39' W 122°23'0 0.0
2014-Jul-22 20:33N 47°39' W 122°23'0 0.0
2014-Jul-22 20:30N 47°39' W 122°23'0 0.0
2014-Jul-22 19:33N 47°39' W 122°23'0 0.0
2014-Jul-22 19:30N 47°39' W 122°23'0 0.0
2014-Jul-22 18:33N 47°39' W 122°23'0 0.0
2014-Jul-22 18:30N 47°39' W 122°23'0 0.0
2014-Jul-22 17:33N 47°39' W 122°23'0 0.0
2014-Jul-22 17:29N 47°39' W 122°23'0 0.0
2014-Jul-22 16:33N 47°39' W 122°23'0 0.0
2014-Jul-22 16:29N 47°39' W 122°23'0 0.0
2014-Jul-22 15:33N 47°39' W 122°23'0 0.0
2014-Jul-22 15:28N 47°39' W 122°23'0 0.0
2014-Jul-22 14:34N 47°39' W 122°23'0 0.0
2014-Jul-22 14:33N 47°39' W 122°23'0 0.0
2014-Jul-22 13:33N 47°39' W 122°23'0 0.0
2014-Jul-22 13:33N 47°39' W 122°23'0 0.0
2014-Jul-22 12:33N 47°39' W 122°23'0 0.0
2014-Jul-22 12:33N 47°39' W 122°23'0 0.0
2014-Jul-22 11:33N 47°39' W 122°23'0 0.0
2014-Jul-22 11:32N 47°39' W 122°23'0 0.0
2014-Jul-22 10:33N 47°39' W 122°23'0 0.0
2014-Jul-22 10:32N 47°39' W 122°23'0 0.0
2014-Jul-22 09:33N 47°39' W 122°23'0 0.0
2014-Jul-22 09:32N 47°39' W 122°23'0 0.0
2014-Jul-22 08:33N 47°39' W 122°23'0 0.0
2014-Jul-22 08:32N 47°39' W 122°23'0 0.0
2014-Jul-22 07:33N 47°39' W 122°23'0 0.0
2014-Jul-22 07:31N 47°39' W 122°23'0 0.0
2014-Jul-22 06:33N 47°39' W 122°23'0 0.0
2014-Jul-22 05:32N 47°39' W 122°23'0 0.0
2014-Jul-22 05:29N 47°39' W 122°23'0 0.0
2014-Jul-22 04:34N 47°39' W 122°23'0 0.0
2014-Jul-22 04:33N 47°39' W 122°23'0 0.0
2014-Jul-22 03:34N 47°39' W 122°23'0 0.0
2014-Jul-22 03:33N 47°39' W 122°23'0 0.0
2014-Jul-22 02:27N 47°39' W 122°23'0 0.0
2014-Jul-22 02:18N 47°39' W 122°23'0 0.0
2014-Jul-22 01:33N 47°39' W 122°23'0 0.0
2014-Jul-22 01:27N 47°39' W 122°23'0 0.0
2014-Jul-22 00:33N 47°39' W 122°23'0 0.0
2014-Jul-22 00:32N 47°39' W 122°23'0 0.0
2014-Jul-21 23:33N 47°39' W 122°23'0 0.0
2014-Jul-21 23:31N 47°39' W 122°23'0 0.0
2014-Jul-21 22:30N 47°39' W 122°23'0 0.0
2014-Jul-21 21:43N 47°39' W 122°23'0 0.0
2014-Jul-21 21:33N 47°39' W 122°23'0 0.0
2014-Jul-21 21:33N 47°39' W 122°23'0 0.0
2014-Jul-21 20:33N 47°39' W 122°23'0 0.0
2014-Jul-21 20:33N 47°39' W 122°23'0 0.0
2014-Jul-21 20:18N 47°39' W 122°23'0 0.0
2014-Jul-21 19:57N 47°39' W 122°23'0 0.0
2014-Jul-21 19:33N 47°39' W 122°23'0 0.0
2014-Jul-21 19:06N 47°39' W 122°23'0 0.0
2014-Jul-21 18:33N 47°39' W 122°23'0 0.0
2014-Jul-21 18:31N 47°39' W 122°23'0 0.0
2014-Jul-21 17:33N 47°39' W 122°23'0 0.0
2014-Jul-21 17:31N 47°39' W 122°23'0 0.0
2014-Jul-21 16:33N 47°39' W 122°23'0 0.0
2014-Jul-21 16:31N 47°39' W 122°23'0 0.0
2014-Jul-21 15:33N 47°39' W 122°23'0 0.0
2014-Jul-21 15:30N 47°39' W 122°23'0 0.0
2014-Jul-21 14:33N 47°39' W 122°23'0 0.0
2014-Jul-21 14:30N 47°39' W 122°23'0 0.0
2014-Jul-21 13:33N 47°39' W 122°23'0 0.0
2014-Jul-21 13:30N 47°39' W 122°23'0 0.0
2014-Jul-21 12:33N 47°39' W 122°23'0 0.0
2014-Jul-21 12:30N 47°39' W 122°23'0 0.0
2014-Jul-21 11:33N 47°39' W 122°23'0 0.0
2014-Jul-21 11:28N 47°39' W 122°23'0 0.0
2014-Jul-21 10:33N 47°39' W 122°23'0 0.0
2014-Jul-21 10:33N 47°39' W 122°23'0 0.0
2014-Jul-21 09:33N 47°39' W 122°23'0 0.0
2014-Jul-21 09:33N 47°39' W 122°23'0 0.0
2014-Jul-21 08:33N 47°39' W 122°23'0 0.0
2014-Jul-21 08:33N 47°39' W 122°23'0 0.0
2014-Jul-21 07:33N 47°39' W 122°23'0 0.0
2014-Jul-21 07:31N 47°39' W 122°23'0 0.0
2014-Jul-21 06:33N 47°39' W 122°23'0 0.0
2014-Jul-21 06:33N 47°39' W 122°23'0 0.0
2014-Jul-21 05:43N 47°39' W 122°23'0 0.0
2014-Jul-21 05:33N 47°39' W 122°23'0 0.0
2014-Jul-21 04:33N 47°39' W 122°23'0 0.0
2014-Jul-21 04:32N 47°39' W 122°23'0 0.0
2014-Jul-21 03:33N 47°39' W 122°23'0 0.0
2014-Jul-21 03:32N 47°39' W 122°23'0 0.0
2014-Jul-21 02:33N 47°39' W 122°23'0 0.0
2014-Jul-21 02:32N 47°39' W 122°23'0 0.0
2014-Jul-21 01:33N 47°39' W 122°23'0 0.0
2014-Jul-21 01:31N 47°39' W 122°23'0 0.0
2014-Jul-21 00:33N 47°39' W 122°23'0 0.0
2014-Jul-21 00:31N 47°39' W 122°23'0 0.0
2014-Jul-20 23:33N 47°39' W 122°23'0 0.0
2014-Jul-20 23:31N 47°39' W 122°23'0 0.0
2014-Jul-20 22:33N 47°39' W 122°23'0 0.0
2014-Jul-20 22:31N 47°39' W 122°23'0 0.0
2014-Jul-20 21:33N 47°39' W 122°23'0 0.0
2014-Jul-20 21:31N 47°39' W 122°23'0 0.0
2014-Jul-20 20:33N 47°39' W 122°23'0 0.0
2014-Jul-20 20:19N 47°39' W 122°23'0 0.0
2014-Jul-20 19:33N 47°39' W 122°23'0 0.0
2014-Jul-20 19:29N 47°39' W 122°23'1 1.1
2014-Jul-20 18:33N 47°40' W 122°24'0 0.1
2014-Jul-20 18:29N 47°40' W 122°24'1 0.9
2014-Jul-20 17:33N 47°41' W 122°25'0 4.2
2014-Jul-20 17:29N 47°41' W 122°25'3 3.7
2014-Jul-20 16:33N 47°38' W 122°23'0 0.0
2014-Jul-20 16:13N 47°38' W 122°23'0 0.0
2014-Jul-20 15:28N 47°38' W 122°23'0 0.0
2014-Jul-20 15:22N 47°38' W 122°23'0 0.0
2014-Jul-20 14:31N 47°38' W 122°23'0 0.0
2014-Jul-20 14:22N 47°38' W 122°23'0 0.0
2014-Jul-20 13:31N 47°38' W 122°23'0 0.0
2014-Jul-20 12:55N 47°38' W 122°23'0 0.0
2014-Jul-20 12:31N 47°38' W 122°23'0 0.0
2014-Jul-20 11:55N 47°38' W 122°23'0 0.0
2014-Jul-20 11:28N 47°38' W 122°23'0 0.0
2014-Jul-20 10:34N 47°38' W 122°23'0 0.0
2014-Jul-20 10:31N 47°38' W 122°23'0 0.0
2014-Jul-20 10:25N 47°38' W 122°23'0 0.0
2014-Jul-20 09:22N 47°38' W 122°23'0 0.0
2014-Jul-20 08:58N 47°38' W 122°23'0 0.0
2014-Jul-20 08:31N 47°38' W 122°23'0 0.0
2014-Jul-20 08:28N 47°38' W 122°23'1 0.9
2014-Jul-20 07:34N 47°37' W 122°24'0 4.3
2014-Jul-20 07:33N 47°37' W 122°24'10 9.9
2014-Jul-20 06:33N 47°47' W 122°28'0 7.6
2014-Jul-20 06:33N 47°47' W 122°28'1111.2
2014-Jul-20 05:33N 47°57' W 122°35'1312.7
2014-Jul-20 04:33N 48°08' W 122°43'1312.8
2014-Jul-20 03:33N 48°11' W 123°02'1212.1
2014-Jul-20 02:33N 48°13' W 123°20'1211.9
2014-Jul-20 01:33N 48°13' W 123°38'1111.5
2014-Jul-20 00:33N 48°14' W 123°55'3311.0
2014-Jul-19 21:34N 48°27' W 124°40'1110.7
2014-Jul-19 20:33N 48°28' W 124°57'1212.0
2014-Jul-19 19:33N 48°30' W 125°15'1212.0
2014-Jul-19 18:33N 48°34' W 125°31'1212.0
2014-Jul-19 17:33N 48°39' W 125°48'1212.1
2014-Jul-19 16:33N 48°43' W 126°05'1212.2
2014-Jul-19 15:33N 48°46' W 126°23'  

Dump ship's entire track history